Time;durP1;ratioP1;P1;durP2;ratioP2;P2;SDS_P1;SDS_P2;PMS_P1;PMS_P2;Temp;Humidity;BMP_temperature;BMP_pressure;BME280_temperature;BME280_humidity;BME280_pressure;Samples;Min_cycle;Max_cycle;Signal;HPM_P1;HPM_P2
2023/11/23 00:01:22;;;;;;;36.15;19.38;;;;;;;7.87;76.55;100404.25;5012635;28;20046;-75
2023/11/23 00:03:48;;;;;;;32.25;18.42;;;;;;;7.88;76.98;100413.81;5012412;28;20132;-75
2023/11/23 00:06:16;;;;;;;34.35;19.45;;;;;;;7.88;77.07;100414.69;5012436;28;20149;-75
2023/11/23 00:08:43;;;;;;;33.45;18.40;;;;;;;7.87;77.02;100410.38;5004610;28;20042;-76
2023/11/23 00:11:10;;;;;;;32.83;19.13;;;;;;;7.87;77.44;100405.13;5012473;28;20077;-79
2023/11/23 00:13:37;;;;;;;33.08;19.27;;;;;;;7.88;76.91;100400.72;5012171;28;20445;-77
2023/11/23 00:16:05;;;;;;;31.98;19.13;;;;;;;7.88;77.34;100396.34;5012333;28;20153;-76
2023/11/23 00:18:31;;;;;;;30.17;18.55;;;;;;;7.88;77.65;100398.97;5011276;28;20045;-74
2023/11/23 00:20:58;;;;;;;33.53;19.10;;;;;;;7.89;77.80;100398.03;5012247;28;20060;-76
2023/11/23 00:23:24;;;;;;;32.33;19.58;;;;;;;7.89;77.78;100390.19;5011791;28;20477;-75
2023/11/23 00:25:51;;;;;;;34.95;19.25;;;;;;;7.90;77.59;100386.66;5012384;28;20078;-73
2023/11/23 00:28:19;;;;;;;32.85;18.38;;;;;;;7.92;77.82;100390.06;5012081;28;20046;-76
2023/11/23 00:30:46;;;;;;;33.53;18.92;;;;;;;7.93;78.13;100391.78;5012165;28;20089;-75
2023/11/23 00:33:12;;;;;;;35.85;19.88;;;;;;;7.94;77.76;100372.53;5011669;28;20541;-73
2023/11/23 00:35:39;;;;;;;34.35;19.33;;;;;;;7.97;78.25;100375.94;5004190;28;20046;-73
2023/11/23 00:38:09;;;;;;;34.80;19.02;;;;;;;7.99;78.33;100380.22;5011643;28;20487;-75
2023/11/23 00:40:36;;;;;;;35.42;19.60;;;;;;;8.01;78.14;100377.56;5011726;28;20510;-75
2023/11/23 00:43:03;;;;;;;37.67;19.65;;;;;;;8.02;78.51;100369.63;5011668;28;20104;-76
2023/11/23 00:45:30;;;;;;;33.42;18.20;;;;;;;8.04;78.56;100365.16;5011798;28;20133;-76
2023/11/23 00:47:56;;;;;;;33.75;19.05;;;;;;;8.08;78.73;100368.56;4994240;28;20080;-75
2023/11/23 00:50:23;;;;;;;32.95;18.63;;;;;;;8.11;78.89;100359.72;5011582;28;20061;-75
2023/11/23 00:52:50;;;;;;;32.08;18.38;;;;;;;8.12;78.58;100362.28;5011638;28;20104;-76
2023/11/23 00:55:17;;;;;;;32.72;19.95;;;;;;;8.15;78.89;100363.94;5011843;28;20616;-74
2023/11/23 00:57:43;;;;;;;33.17;19.05;;;;;;;8.18;78.63;100369.91;5011658;28;20053;-75
2023/11/23 01:00:10;;;;;;;36.65;20.13;;;;;;;8.21;78.69;100372.44;5011538;28;20136;-78
2023/11/23 01:02:38;;;;;;;33.90;19.20;;;;;;;8.24;79.01;100374.09;4993663;28;20236;-75
2023/11/23 01:05:05;;;;;;;31.40;18.15;;;;;;;8.28;79.09;100361.69;5011421;28;20064;-74
2023/11/23 01:07:34;;;;;;;33.13;19.00;;;;;;;8.30;78.84;100365.13;5011378;28;20058;-74
2023/11/23 01:10:00;;;;;;;31.10;18.35;;;;;;;8.33;79.05;100372.88;5011527;28;20052;-76
2023/11/23 01:12:27;;;;;;;34.00;18.67;;;;;;;8.35;78.90;100360.56;5011197;28;20069;-73
2023/11/23 01:14:54;;;;;;;37.33;19.50;;;;;;;8.38;79.19;100359.59;5011337;28;20053;-76
2023/11/23 01:17:20;;;;;;;33.65;19.05;;;;;;;8.40;79.18;100356.00;5011186;28;20045;-75
2023/11/23 01:19:47;;;;;;;37.72;20.40;;;;;;;8.42;79.25;100343.69;5011245;28;20120;-78
2023/11/23 01:22:13;;;;;;;34.28;19.85;;;;;;;8.44;79.18;100354.09;5011473;28;20085;-76
2023/11/23 01:24:40;;;;;;;33.58;19.50;;;;;;;8.45;79.22;100342.72;5011033;28;20100;-75
2023/11/23 01:27:07;;;;;;;33.88;19.73;;;;;;;8.48;79.23;100340.81;5011287;28;20089;-78
2023/11/23 01:29:34;;;;;;;38.42;20.63;;;;;;;8.50;79.16;100337.28;5011651;28;20503;-75
2023/11/23 01:32:00;;;;;;;36.78;20.23;;;;;;;8.51;79.16;100341.59;5017725;28;20042;-77
2023/11/23 01:34:27;;;;;;;34.40;19.60;;;;;;;8.52;79.40;100330.22;5017671;28;20052;-78
2023/11/23 01:36:53;;;;;;;41.08;20.85;;;;;;;8.53;79.13;100337.19;5017654;28;20046;-74
2023/11/23 01:39:20;;;;;;;38.60;21.25;;;;;;;8.54;79.52;100333.63;5017790;28;20133;-73
2023/11/23 01:41:46;;;;;;;33.67;20.15;;;;;;;8.54;79.20;100339.75;5009918;28;20053;-73
2023/11/23 01:44:13;;;;;;;42.47;22.50;;;;;;;8.55;79.42;100325.72;5017482;28;20501;-73
2023/11/23 01:46:39;;;;;;;34.63;20.63;;;;;;;8.55;79.39;100325.72;4999917;28;20058;-74
2023/11/23 01:49:07;;;;;;;37.75;20.40;;;;;;;8.57;79.36;100323.03;5017728;28;20057;-75
2023/11/23 01:51:34;;;;;;;40.55;22.25;;;;;;;8.57;79.46;100328.28;5017694;28;20108;-76
2023/11/23 01:54:00;;;;;;;40.35;23.08;;;;;;;8.57;79.61;100323.03;4999955;28;20085;-78
2023/11/23 01:56:29;;;;;;;40.78;22.05;;;;;;;8.58;79.49;100324.75;5009617;28;20050;-75
2023/11/23 01:58:56;;;;;;;41.97;22.25;;;;;;;8.59;79.29;100323.81;5017479;28;20115;-73
2023/11/23 02:01:23;;;;;;;38.95;21.63;;;;;;;8.60;79.49;100322.91;5017389;28;20058;-77
2023/11/23 02:03:50;;;;;;;40.55;21.35;;;;;;;8.62;79.59;100322.84;5017278;28;20494;-73
2023/11/23 02:06:19;;;;;;;40.80;23.90;;;;;;;8.63;79.65;100322.78;5017636;28;20120;-75
2023/11/23 02:08:47;;;;;;;41.75;22.60;;;;;;;8.64;79.64;100321.88;5017360;28;20144;-77
2023/11/23 02:11:14;;;;;;;41.35;21.83;;;;;;;8.67;79.68;100308.63;4999963;28;20105;-75
2023/11/23 02:13:42;;;;;;;41.42;22.88;;;;;;;8.67;79.72;100306.00;5017167;28;20050;-75
2023/11/23 02:16:08;;;;;;;41.17;23.10;;;;;;;8.68;79.49;100284.06;5017527;28;20088;-74
2023/11/23 02:18:37;;;;;;;39.42;22.77;;;;;;;8.69;79.83;100292.81;5017323;28;20084;-75
2023/11/23 02:21:04;;;;;;;44.55;23.38;;;;;;;8.70;79.75;100287.50;5017985;28;20434;-76
2023/11/23 02:23:31;;;;;;;39.38;22.15;;;;;;;8.72;79.56;100290.91;5017206;28;20054;-74
2023/11/23 02:25:57;;;;;;;38.35;22.73;;;;;;;8.73;79.78;100291.78;4999793;28;20113;-75
2023/11/23 02:28:24;;;;;;;38.88;22.00;;;;;;;8.75;79.69;100294.34;5017065;28;20521;-75
2023/11/23 02:30:51;;;;;;;43.40;22.40;;;;;;;8.77;79.61;100301.25;4991937;28;20081;-75
2023/11/23 02:33:17;;;;;;;40.22;22.17;;;;;;;8.78;79.77;100304.72;5016951;28;20054;-73
2023/11/23 02:35:44;;;;;;;36.38;22.17;;;;;;;8.79;79.94;100293.31;5017022;28;20100;-75
2023/11/23 02:38:11;;;;;;;42.42;22.95;;;;;;;8.79;79.67;100293.31;4999483;28;20101;-76
2023/11/23 02:40:37;;;;;;;36.95;21.17;;;;;;;8.82;80.06;100295.81;5016960;28;20096;-75
2023/11/23 02:43:05;;;;;;;37.75;22.30;;;;;;;8.82;79.87;100295.81;5012983;28;20527;-76
2023/11/23 02:45:32;;;;;;;39.35;21.88;;;;;;;8.84;79.78;100296.59;5013768;28;20060;-75
2023/11/23 02:47:59;;;;;;;30.92;19.27;;;;;;;8.85;80.11;100285.16;5013993;28;20046;-75
2023/11/23 02:50:26;;;;;;;35.35;20.85;;;;;;;8.86;80.15;100287.72;5014009;28;20054;-76
2023/11/23 02:52:53;;;;;;;32.88;19.80;;;;;;;8.89;80.05;100275.41;5013573;28;20060;-73
2023/11/23 02:55:19;;;;;;;34.25;20.42;;;;;;;8.90;80.01;100272.69;4996260;28;20108;-74
2023/11/23 02:57:46;;;;;;;36.50;21.02;;;;;;;8.91;80.24;100273.56;5013462;28;20064;-75
2023/11/23 03:00:13;;;;;;;38.05;21.80;;;;;;;8.93;80.09;100275.19;5013667;28;20570;-74
2023/11/23 03:02:39;;;;;;;36.53;21.38;;;;;;;8.94;80.15;100273.44;5013293;28;20133;-75
2023/11/23 03:05:06;;;;;;;35.92;21.13;;;;;;;8.97;80.18;100278.56;5013511;28;20707;-75
2023/11/23 03:07:33;;;;;;;36.42;21.38;;;;;;;8.98;80.38;100269.75;5013455;28;20462;-75
2023/11/23 03:10:01;;;;;;;35.72;19.98;;;;;;;9.01;80.31;100267.00;4995769;28;20141;-75
2023/11/23 03:12:28;;;;;;;35.42;21.55;;;;;;;9.03;80.44;100265.16;5013433;28;20046;-77
2023/11/23 03:14:58;;;;;;;36.88;21.33;;;;;;;9.05;80.35;100270.34;5005417;28;20085;-76
2023/11/23 03:17:26;;;;;;;32.30;21.52;;;;;;;9.06;80.47;100264.19;5013602;28;20133;-75
2023/11/23 03:19:52;;;;;;;33.47;21.35;;;;;;;9.08;80.34;100265.81;4995729;28;20042;-77
2023/11/23 03:22:19;;;;;;;35.90;21.20;;;;;;;9.10;80.14;100271.00;5013258;28;20123;-80
2023/11/23 03:24:49;;;;;;;33.40;21.15;;;;;;;9.12;80.49;100263.91;5013169;28;20104;-74
2023/11/23 03:27:15;;;;;;;34.13;20.75;;;;;;;9.13;80.41;100261.22;5013606;28;20053;-73
2023/11/23 03:29:42;;;;;;;31.65;20.02;;;;;;;9.16;80.57;100267.28;5013265;28;20053;-75
2023/11/23 03:32:08;;;;;;;35.80;20.70;;;;;;;9.18;80.53;100270.66;5013147;28;20461;-76
2023/11/23 03:34:35;;;;;;;35.83;21.15;;;;;;;9.20;80.82;100259.19;5012754;28;20057;-74
2023/11/23 03:37:02;;;;;;;35.58;21.17;;;;;;;9.23;80.69;100255.56;5013009;28;20418;-76
2023/11/23 03:39:30;;;;;;;30.95;20.33;;;;;;;9.25;80.76;100246.72;5013117;28;20085;-76
2023/11/23 03:41:56;;;;;;;36.70;20.52;;;;;;;9.29;80.95;100236.06;5005061;28;20107;-73
2023/11/23 03:44:23;;;;;;;35.17;20.42;;;;;;;9.30;80.99;100243.03;5012624;28;20052;-76
2023/11/23 03:46:49;;;;;;;33.80;20.20;;;;;;;9.34;80.97;100241.97;5012505;28;20053;-74
2023/11/23 03:49:16;;;;;;;30.60;20.92;;;;;;;9.36;80.94;100229.63;5012791;28;20054;-76
2023/11/23 03:51:42;;;;;;;37.38;22.33;;;;;;;9.37;80.99;100221.69;5012507;28;20058;-76
2023/11/23 03:54:09;;;;;;;32.45;21.67;;;;;;;9.40;81.00;100228.56;5012271;28;20053;-74
2023/11/23 03:56:37;;;;;;;34.67;21.75;;;;;;;9.44;81.22;100224.03;5012577;28;20502;-76
2023/11/23 03:59:04;;;;;;;32.95;21.30;;;;;;;9.46;81.20;100215.16;5012797;28;20057;-76
2023/11/23 04:01:31;;;;;;;32.33;20.75;;;;;;;9.48;81.16;100223.81;5012461;28;20046;-72
2023/11/23 04:03:58;;;;;;;36.10;22.52;;;;;;;9.51;81.33;100213.19;5012370;28;20060;-74
2023/11/23 04:06:24;;;;;;;38.28;20.90;;;;;;;9.53;81.20;100213.09;5012467;28;20054;-73
2023/11/23 04:08:51;;;;;;;34.70;21.05;;;;;;;9.57;80.98;100208.56;5012181;28;20049;-76
2023/11/23 04:11:17;;;;;;;32.47;19.85;;;;;;;9.60;81.19;100211.03;5012502;28;20054;-75
2023/11/23 04:13:44;;;;;;;33.40;20.52;;;;;;;9.62;81.35;100206.56;5012075;28;20058;-75
2023/11/23 04:16:10;;;;;;;32.38;21.50;;;;;;;9.63;81.26;100203.88;5012337;28;20042;-75
2023/11/23 04:18:41;;;;;;;32.75;21.60;;;;;;;9.63;81.17;100198.63;4994402;28;20115;-77
2023/11/23 04:21:08;;;;;;;36.30;22.48;;;;;;;9.68;81.50;100198.41;5012731;28;20045;-75
2023/11/23 04:23:35;;;;;;;35.75;21.52;;;;;;;9.70;81.35;100209.72;5011469;28;20053;-73
2023/11/23 04:26:02;;;;;;;33.25;22.15;;;;;;;9.73;81.58;100203.44;5012319;28;20104;-74
2023/11/23 04:28:28;;;;;;;34.92;21.48;;;;;;;9.76;81.66;100204.16;5011874;28;20050;-75
2023/11/23 04:30:56;;;;;;;40.17;23.55;;;;;;;9.78;81.46;100202.31;5012401;28;20410;-75
2023/11/23 04:33:22;;;;;;;37.58;23.17;;;;;;;9.82;81.65;100207.41;5011820;28;20115;-75
2023/11/23 04:35:49;;;;;;;37.03;23.48;;;;;;;9.84;81.63;100200.31;5012222;28;20046;-75
2023/11/23 04:38:16;;;;;;;35.78;22.60;;;;;;;9.88;81.79;100191.38;5012216;28;20057;-77
2023/11/23 04:40:43;;;;;;;36.38;22.92;;;;;;;9.90;81.86;100186.88;5012123;28;20049;-76
2023/11/23 04:43:09;;;;;;;35.58;24.42;;;;;;;9.93;82.03;100197.25;5011509;28;20483;-75
2023/11/23 04:45:36;;;;;;;39.17;25.17;;;;;;;9.97;82.08;100201.44;5011887;28;20092;-75
2023/11/23 04:48:03;;;;;;;40.47;26.27;;;;;;;10.00;82.10;100188.16;5003341;28;20458;-76
2023/11/23 04:50:30;;;;;;;36.28;25.50;;;;;;;10.03;82.03;100185.38;5012249;28;20057;-75
2023/11/23 04:52:57;;;;;;;38.33;23.73;;;;;;;10.08;82.21;100200.06;5011646;28;20483;-75
2023/11/23 04:55:23;;;;;;;39.58;27.30;;;;;;;10.11;81.96;100198.16;5011923;28;20049;-76
2023/11/23 04:57:50;;;;;;;39.00;26.30;;;;;;;10.13;81.83;100198.94;5011429;28;20042;-75
2023/11/23 05:00:24;;;;;;;37.65;25.02;;;;;;;10.18;81.87;100198.72;5011761;28;20380;-74
2023/11/23 05:02:51;;;;;;;42.10;26.15;;;;;;;10.22;81.97;100196.78;5011374;28;20046;-74
2023/11/23 05:05:18;;;;;;;42.13;26.20;;;;;;;10.24;81.83;100198.41;5011448;28;20139;-75
2023/11/23 05:07:45;;;;;;;42.60;27.88;;;;;;;10.27;82.07;100203.53;5011430;28;20056;-73
2023/11/23 05:10:11;;;;;;;43.17;28.30;;;;;;;10.29;81.83;100198.19;5011774;28;20461;-73
2023/11/23 05:12:39;;;;;;;46.03;28.00;;;;;;;10.33;82.00;100201.53;5011053;28;20541;-73
2023/11/23 05:15:06;;;;;;;43.08;28.58;;;;;;;10.36;81.97;100196.13;5003289;28;20100;-76
2023/11/23 05:17:33;;;;;;;50.05;29.63;;;;;;;10.37;82.14;100197.81;5011517;28;20129;-75
2023/11/23 05:19:59;;;;;;;41.60;27.52;;;;;;;10.39;82.17;100183.66;5011462;28;20054;-78
2023/11/23 05:22:26;;;;;;;42.00;27.02;;;;;;;10.43;82.10;100192.25;5011388;28;20049;-74
2023/11/23 05:24:53;;;;;;;43.15;27.80;;;;;;;10.47;82.07;100199.09;5011292;28;20050;-75
2023/11/23 05:27:20;;;;;;;46.33;28.48;;;;;;;10.50;82.11;100187.59;5011378;28;20050;-77
2023/11/23 05:29:47;;;;;;;44.53;28.75;;;;;;;10.53;82.13;100172.47;5011394;28;20054;-76
2023/11/23 05:32:17;;;;;;;47.60;28.88;;;;;;;10.57;82.13;100181.06;5011524;28;20077;-75
2023/11/23 05:34:44;;;;;;;47.10;29.50;;;;;;;10.59;82.18;100183.63;5011208;28;20049;-74
2023/11/23 05:37:10;;;;;;;41.63;28.00;;;;;;;10.62;82.18;100186.13;5003262;28;20561;-79
2023/11/23 05:39:38;;;;;;;47.25;29.98;;;;;;;10.65;82.28;100175.44;5011233;28;20487;-75
2023/11/23 05:42:09;;;;;;;48.25;27.23;;;;;;;10.68;82.13;100175.25;5011180;28;20095;-75
2023/11/23 05:48:02;;;;;;;39.85;27.35;;;;;;;10.77;82.23;100174.78;5002808;28;20499;-75
2023/11/23 05:50:30;;;;;;;40.55;27.15;;;;;;;10.79;82.15;100172.06;5010954;28;20048;-75
2023/11/23 05:52:56;;;;;;;41.42;27.63;;;;;;;10.81;82.22;100170.22;5010793;28;20502;-74
2023/11/23 05:55:23;;;;;;;41.03;26.98;;;;;;;10.85;82.22;100168.28;5011112;28;20042;-73
2023/11/23 05:57:49;;;;;;;40.78;27.75;;;;;;;10.88;82.51;100162.88;5010233;28;20073;-74
2023/11/23 06:00:16;;;;;;;38.28;26.42;;;;;;;10.90;82.39;100156.59;5010338;28;20093;-75
2023/11/23 06:02:43;;;;;;;39.53;26.00;;;;;;;10.93;82.38;100158.19;5009686;28;20157;-74
2023/11/23 06:05:09;;;;;;;36.33;26.17;;;;;;;10.96;82.17;100147.53;5002107;28;20054;-75
2023/11/23 06:07:36;;;;;;;36.35;25.50;;;;;;;10.99;82.50;100142.06;5010145;28;20050;-75
2023/11/23 06:10:05;;;;;;;37.88;26.08;;;;;;;11.02;82.32;100141.03;5009758;28;20137;-73
2023/11/23 06:12:31;;;;;;;41.75;27.25;;;;;;;11.04;82.25;100140.06;5009533;28;20050;-75
2023/11/23 06:14:58;;;;;;;42.33;26.05;;;;;;;11.08;82.23;100141.59;5009739;28;20061;-75
2023/11/23 06:17:24;;;;;;;43.20;27.50;;;;;;;11.10;82.28;100144.13;5011586;28;20050;-78
2023/11/23 06:19:51;;;;;;;41.70;26.45;;;;;;;11.13;82.10;100130.81;5014152;28;20049;-73
2023/11/23 06:22:17;;;;;;;40.80;26.25;;;;;;;11.16;82.28;100135.06;5014150;28;20050;-77
2023/11/23 06:24:44;;;;;;;40.25;26.58;;;;;;;11.17;82.23;100128.84;5013678;28;20132;-75
2023/11/23 06:27:10;;;;;;;37.33;25.38;;;;;;;11.19;82.24;100122.59;5005954;28;20046;-75
2023/11/23 06:29:37;;;;;;;39.70;25.15;;;;;;;11.21;82.31;100130.38;5013772;28;20490;-74
2023/11/23 06:32:04;;;;;;;44.78;24.40;;;;;;;11.24;82.07;100124.97;5013621;28;20061;-77
2023/11/23 06:34:32;;;;;;;33.30;23.38;;;;;;;11.25;82.02;100129.28;5013755;28;20052;-73
2023/11/23 06:36:59;;;;;;;39.30;24.75;;;;;;;11.27;82.04;100130.06;4996385;28;20057;-78
2023/11/23 06:39:26;;;;;;;34.85;23.58;;;;;;;11.28;82.14;100123.84;5013745;28;20045;-78
2023/11/23 06:41:54;;;;;;;38.72;24.70;;;;;;;11.31;82.13;100133.38;5013616;28;20041;-75
2023/11/23 06:44:21;;;;;;;34.47;22.83;;;;;;;11.33;82.07;100126.25;5013470;28;20042;-75
2023/11/23 06:46:48;;;;;;;37.53;24.75;;;;;;;11.35;82.00;100127.00;5013295;28;20137;-74
2023/11/23 06:49:15;;;;;;;33.97;23.80;;;;;;;11.37;82.24;100119.03;5013632;28;20050;-77
2023/11/23 06:51:41;;;;;;;35.85;23.48;;;;;;;11.39;82.11;100119.78;5013410;28;20049;-74
2023/11/23 06:54:09;;;;;;;33.38;22.42;;;;;;;11.39;82.14;100120.63;5013240;28;20132;-76
2023/11/23 06:56:36;;;;;;;35.35;20.88;;;;;;;11.41;82.13;100116.16;5013360;28;20050;-73
2023/11/23 06:59:02;;;;;;;31.73;21.50;;;;;;;11.44;82.01;100108.06;5013166;28;20521;-75
2023/11/23 07:01:29;;;;;;;35.65;21.40;;;;;;;11.46;82.01;100123.78;5013197;28;20045;-74
2023/11/23 07:03:55;;;;;;;29.67;20.67;;;;;;;11.48;82.01;100116.66;5013142;28;20119;-75
2023/11/23 07:06:24;;;;;;;31.65;19.70;;;;;;;11.50;82.05;100114.78;5013366;28;20045;-75
2023/11/23 07:08:52;;;;;;;27.27;20.63;;;;;;;11.51;82.12;100116.47;5012975;28;20077;-75
2023/11/23 07:11:19;;;;;;;31.65;21.65;;;;;;;11.53;81.96;100119.88;5013156;28;20050;-75
2023/11/23 07:13:46;;;;;;;33.33;19.77;;;;;;;11.56;82.10;100108.31;5012883;28;20065;-75
2023/11/23 07:16:13;;;;;;;26.23;18.38;;;;;;;11.58;82.01;100117.84;5012892;28;20070;-76
2023/11/23 07:18:40;;;;;;;29.02;18.42;;;;;;;11.60;81.97;100099.31;5013028;28;20073;-73
2023/11/23 07:21:07;;;;;;;24.67;17.50;;;;;;;11.62;81.91;100097.41;5012973;28;20069;-77
2023/11/23 07:23:36;;;;;;;27.58;18.10;;;;;;;11.64;82.04;100105.25;5012768;28;20068;-76
2023/11/23 07:26:02;;;;;;;26.98;18.13;;;;;;;11.66;81.78;100092.84;5005007;28;20065;-74
2023/11/23 07:28:29;;;;;;;22.27;16.27;;;;;;;11.68;81.76;100104.13;5012206;28;20049;-75
2023/11/23 07:30:56;;;;;;;26.25;17.67;;;;;;;11.68;81.50;100104.13;5012836;28;20050;-77
2023/11/23 07:33:29;;;;;;;25.98;16.92;;;;;;;11.70;81.91;100100.47;5012646;28;20046;-73
2023/11/23 07:35:55;;;;;;;23.80;17.15;;;;;;;11.71;81.76;100107.44;5012516;28;20064;-77
2023/11/23 07:38:22;;;;;;;28.75;16.75;;;;;;;11.75;81.92;100108.16;5012566;28;20048;-77
2023/11/23 07:40:49;;;;;;;25.42;15.50;;;;;;;11.77;82.02;100116.81;5012464;28;20509;-76
2023/11/23 07:43:15;;;;;;;22.67;16.02;;;;;;;11.78;81.67;100100.03;5012225;28;20479;-75
2023/11/23 07:45:42;;;;;;;20.80;15.52;;;;;;;11.81;81.83;100097.25;5012681;28;20053;-73
2023/11/23 07:48:08;;;;;;;23.42;16.08;;;;;;;11.83;81.68;100092.75;5012418;28;20053;-76
2023/11/23 07:50:36;;;;;;;21.58;16.35;;;;;;;11.83;81.64;100089.25;5012428;28;20045;-73
2023/11/23 07:53:03;;;;;;;20.42;15.32;;;;;;;11.86;81.73;100086.44;5011940;28;20058;-76
2023/11/23 07:55:33;;;;;;;20.00;15.30;;;;;;;11.87;81.40;100101.31;5012190;28;20093;-75
2023/11/23 07:58:00;;;;;;;23.25;15.05;;;;;;;11.90;81.73;100089.75;5012293;28;20137;-74
2023/11/23 08:00:27;;;;;;;20.73;15.27;;;;;;;11.92;81.69;100077.31;5012402;28;20072;-75
2023/11/23 08:02:54;;;;;;;26.70;14.45;;;;;;;11.92;81.57;100078.16;5011998;28;20042;-76
2023/11/23 08:05:21;;;;;;;18.33;13.60;;;;;;;11.95;81.57;100085.03;5012035;28;20049;-76
2023/11/23 08:07:50;;;;;;;22.30;15.52;;;;;;;11.96;81.49;100078.84;4994451;28;20128;-74
2023/11/23 08:10:16;;;;;;;18.40;13.93;;;;;;;11.97;81.58;100080.53;5012172;28;20057;-78
2023/11/23 08:12:43;;;;;;;20.17;13.40;;;;;;;11.98;81.62;100062.00;5011952;28;20064;-73
2023/11/23 08:15:10;;;;;;;23.13;13.68;;;;;;;12.00;81.57;100072.44;5011891;28;20042;-74
2023/11/23 08:17:37;;;;;;;22.17;13.27;;;;;;;12.02;81.53;100075.84;5011898;28;20503;-75
2023/11/23 08:20:08;;;;;;;22.27;13.57;;;;;;;12.03;81.47;100066.16;4994351;28;20078;-77
2023/11/23 08:22:35;;;;;;;19.27;12.55;;;;;;;12.04;81.50;100075.75;5011611;28;20042;-78
2023/11/23 08:25:02;;;;;;;20.38;12.75;;;;;;;12.06;81.32;100076.53;5011797;28;20108;-75
2023/11/23 08:27:29;;;;;;;15.93;12.02;;;;;;;12.09;81.49;100074.59;5011871;28;20085;-74
2023/11/23 08:29:55;;;;;;;23.13;12.65;;;;;;;12.10;81.31;100075.41;4994149;28;20050;-77
2023/11/23 08:32:22;;;;;;;16.70;11.82;;;;;;;12.12;81.29;100084.94;5003591;28;20053;-78
2023/11/23 08:34:49;;;;;;;21.00;12.80;;;;;;;12.12;81.32;100070.91;5011557;28;20514;-74
2023/11/23 08:37:16;;;;;;;16.95;10.82;;;;;;;12.14;80.91;100079.59;5011446;28;20685;-77
2023/11/23 08:39:42;;;;;;;17.25;11.68;;;;;;;12.15;81.16;100068.06;4993546;28;20096;-77
2023/11/23 08:42:10;;;;;;;18.10;11.27;;;;;;;12.18;81.24;100056.53;5011546;28;20054;-75
2023/11/23 08:44:37;;;;;;;12.80;10.68;;;;;;;12.19;81.20;100040.56;5011436;28;20127;-73
2023/11/23 08:47:04;;;;;;;24.23;11.38;;;;;;;12.21;81.16;100035.19;5011160;28;20108;-76
2023/11/23 08:49:31;;;;;;;14.45;10.82;;;;;;;12.22;81.20;100037.75;5011207;28;20481;-75
2023/11/23 08:51:58;;;;;;;18.08;10.45;;;;;;;12.24;81.17;100025.34;5011504;28;20046;-73
2023/11/23 08:54:24;;;;;;;20.33;10.65;;;;;;;12.25;80.98;100031.44;5008091;28;20395;-75
2023/11/23 08:56:54;;;;;;;16.08;10.45;;;;;;;12.26;80.95;100027.84;5006751;28;20061;-78
2023/11/23 08:59:21;;;;;;;18.98;10.75;;;;;;;12.27;81.02;100045.41;5011143;28;20105;-75
2023/11/23 09:01:48;;;;;;;16.95;10.65;;;;;;;12.27;80.82;100034.84;5011108;28;20096;-73
2023/11/23 09:04:29;;;;;;;15.88;10.18;;;;;;;12.30;81.05;100029.38;5011249;28;20147;-76
2023/11/23 09:07:05;;;;;;;17.80;10.38;;;;;;;12.31;80.89;100015.25;5011023;28;20589;-74
2023/11/23 09:09:32;;;;;;;21.02;10.45;;;;;;;12.32;81.08;100027.50;5010968;28;20053;-74
2023/11/23 09:12:01;;;;;;;17.08;10.68;;;;;;;12.33;80.94;100026.56;5011000;28;20054;-76
2023/11/23 09:14:27;;;;;;;15.60;9.57;;;;;;;12.33;81.00;100005.44;5010739;28;20049;-78
2023/11/23 09:17:05;;;;;;;15.45;9.85;;;;;;;12.35;80.85;100000.94;4987295;28;20058;-75
2023/11/23 09:19:31;;;;;;;17.38;9.68;;;;;;;12.37;81.01;99995.53;5011038;28;20053;-75
2023/11/23 09:21:58;;;;;;;12.27;9.95;;;;;;;12.37;80.91;99993.75;5010817;28;20045;-78
2023/11/23 09:24:24;;;;;;;18.38;9.30;;;;;;;12.40;80.85;99991.88;5010785;28;20050;-75
2023/11/23 09:26:51;;;;;;;17.45;9.32;;;;;;;12.41;80.84;99973.28;5010900;28;20050;-75
2023/11/23 09:29:18;;;;;;;19.63;10.13;;;;;;;12.41;80.95;99973.28;5010655;28;20180;-79
2023/11/23 09:31:45;;;;;;;16.15;9.65;;;;;;;12.44;80.96;99981.03;5010915;28;20046;-74
2023/11/23 09:34:12;;;;;;;16.33;9.30;;;;;;;12.46;80.82;99954.53;5010636;28;20133;-73
2023/11/23 09:36:39;;;;;;;20.90;9.10;;;;;;;12.47;81.10;99986.13;5010697;28;20042;-76
2023/11/23 09:39:06;;;;;;;16.83;8.60;;;;;;;12.49;81.37;99992.16;5010552;28;20046;-75
2023/11/23 09:41:34;;;;;;;20.88;9.57;;;;;;;12.49;80.70;99965.75;5010715;28;20074;-75
2023/11/23 09:44:01;;;;;;;14.07;9.05;;;;;;;12.50;80.85;99942.84;5010421;28;20110;-76
2023/11/23 09:46:28;;;;;;;13.40;9.13;;;;;;;12.52;80.96;99959.41;5002693;28;20046;-75
2023/11/23 09:48:56;;;;;;;20.02;8.85;;;;;;;12.55;80.94;99953.09;5010808;28;20053;-76
2023/11/23 09:51:22;;;;;;;13.90;8.52;;;;;;;12.56;80.79;99946.91;5011914;28;20104;-73
2023/11/23 09:53:54;;;;;;;9.93;7.65;;;;;;;12.58;80.63;99961.69;5014505;28;20048;-74
2023/11/23 09:56:22;;;;;;;14.97;8.67;;;;;;;12.59;80.68;99944.91;5014469;28;20053;-75
2023/11/23 09:58:50;;;;;;;16.20;8.38;;;;;;;12.63;80.80;99953.47;5014557;28;20100;-74
2023/11/23 10:01:18;;;;;;;12.10;7.97;;;;;;;12.67;80.78;99948.88;5014562;28;20081;-76
2023/11/23 10:03:52;;;;;;;14.30;8.93;;;;;;;12.67;80.02;99962.91;5014231;28;20050;-77
2023/11/23 10:06:19;;;;;;;13.60;7.88;;;;;;;12.70;80.54;99960.06;5014396;28;20434;-75
2023/11/23 10:08:46;;;;;;;12.65;7.45;;;;;;;12.72;80.45;99947.63;5014197;28;20049;-77
2023/11/23 10:11:13;;;;;;;11.02;7.75;;;;;;;12.73;80.51;99944.03;5014335;28;20056;-76
2023/11/23 10:13:40;;;;;;;15.57;7.53;;;;;;;12.76;80.36;99945.63;5013980;28;20049;-76
2023/11/23 10:16:10;;;;;;;14.05;7.43;;;;;;;12.80;80.37;99946.28;5014172;28;20453;-76
2023/11/23 10:18:38;;;;;;;12.88;7.38;;;;;;;12.81;80.35;99930.34;5014133;28;20053;-74
2023/11/23 10:21:05;;;;;;;14.32;7.47;;;;;;;12.83;80.47;99949.59;4996635;28;20050;-75
2023/11/23 10:23:31;;;;;;;14.90;7.82;;;;;;;12.84;80.33;99924.88;4996513;28;20046;-77
2023/11/23 10:25:58;;;;;;;15.98;8.05;;;;;;;12.86;79.93;99928.25;5014167;28;20422;-74
2023/11/23 10:28:28;;;;;;;12.80;7.82;;;;;;;12.88;80.08;99933.44;4996836;28;20053;-76
2023/11/23 10:30:55;;;;;;;11.18;7.70;;;;;;;12.89;80.15;99933.34;5014012;28;20085;-73
2023/11/23 10:33:25;;;;;;;14.15;7.13;;;;;;;12.92;79.93;99918.22;5013542;28;20058;-75
2023/11/23 10:35:55;;;;;;;16.13;7.57;;;;;;;12.92;79.71;99910.31;5013739;28;20052;-77
2023/11/23 10:38:23;;;;;;;16.50;7.55;;;;;;;12.93;79.54;99919.94;5013531;28;20049;-74
2023/11/23 10:41:08;;;;;;;15.55;7.43;;;;;;;12.94;79.74;99917.22;5013825;28;20054;-78
2023/11/23 10:43:40;;;;;;;12.80;7.38;;;;;;;12.94;79.55;99905.78;5013583;28;20042;-75
2023/11/23 10:46:11;;;;;;;12.70;7.38;;;;;;;12.93;79.56;99899.63;5013702;28;20080;-77
2023/11/23 10:48:38;;;;;;;12.70;7.78;;;;;;;12.93;79.59;99888.25;4996196;28;20132;-76
2023/11/23 10:51:06;;;;;;;11.85;7.68;;;;;;;12.92;79.50;99881.25;5013787;28;20077;-73
2023/11/23 10:53:33;;;;;;;10.73;7.47;;;;;;;12.92;79.82;99879.47;5013271;28;20053;-76
2023/11/23 10:56:07;;;;;;;11.98;7.35;;;;;;;12.88;78.61;99862.97;5013400;28;20077;-76
2023/11/23 10:58:38;;;;;;;15.93;7.35;;;;;;;12.93;79.72;99872.41;5013352;28;20041;-75
2023/11/23 11:01:10;;;;;;;10.35;7.53;;;;;;;12.90;78.53;99839.09;5013417;28;21263;-73
2023/11/23 11:03:38;;;;;;;13.18;7.28;;;;;;;12.94;79.83;99861.72;4987258;28;20121;-75
2023/11/23 11:06:10;;;;;;;19.58;8.18;;;;;;;12.90;78.56;99853.13;5013313;28;20054;-74
2023/11/23 11:08:42;;;;;;;20.73;7.55;;;;;;;12.96;79.71;99861.59;5013079;28;20504;-75
2023/11/23 11:11:11;;;;;;;12.98;7.32;;;;;;;12.97;79.84;99868.59;5013249;28;20053;-77
2023/11/23 11:13:44;;;;;;;13.52;7.18;;;;;;;12.98;79.10;99872.94;4995737;28;20045;-76
2023/11/23 11:16:17;;;;;;;17.25;7.80;;;;;;;12.98;79.12;99870.28;5013253;28;20054;-78
2023/11/23 11:18:53;;;;;;;13.82;7.50;;;;;;;12.99;78.96;99875.47;5005559;28;20486;-75